sensor_id;sensor_type;location;lat;lon;timestamp;temperature;humidity
46458;DHT22;32155;54.076;12.092;2023-04-16T00:01:50;8.20;99.90
46458;DHT22;32155;54.076;12.092;2023-04-16T00:04:20;8.20;99.90
46458;DHT22;32155;54.076;12.092;2023-04-16T00:06:46;8.20;99.90
46458;DHT22;32155;54.076;12.092;2023-04-16T00:09:11;8.10;99.90
46458;DHT22;32155;54.076;12.092;2023-04-16T00:11:37;8.10;99.90
46458;DHT22;32155;54.076;12.092;2023-04-16T00:14:05;8.10;99.90
46458;DHT22;32155;54.076;12.092;2023-04-16T00:16:30;8.10;99.90
46458;DHT22;32155;54.076;12.092;2023-04-16T00:18:56;8.10;99.90
46458;DHT22;32155;54.076;12.092;2023-04-16T00:21:21;8.10;99.90
46458;DHT22;32155;54.076;12.092;2023-04-16T00:23:47;8.10;99.90
46458;DHT22;32155;54.076;12.092;2023-04-16T00:26:13;8.10;99.90
46458;DHT22;32155;54.076;12.092;2023-04-16T00:28:38;8.10;99.90
46458;DHT22;32155;54.076;12.092;2023-04-16T00:31:04;8.00;99.90
46458;DHT22;32155;54.076;12.092;2023-04-16T00:33:30;8.00;99.90
46458;DHT22;32155;54.076;12.092;2023-04-16T00:35:57;8.00;99.90
46458;DHT22;32155;54.076;12.092;2023-04-16T00:38:28;8.10;99.90
46458;DHT22;32155;54.076;12.092;2023-04-16T00:40:55;8.10;99.90
46458;DHT22;32155;54.076;12.092;2023-04-16T00:43:24;8.10;99.90
46458;DHT22;32155;54.076;12.092;2023-04-16T00:45:52;8.20;99.90
46458;DHT22;32155;54.076;12.092;2023-04-16T00:48:20;8.10;99.90
46458;DHT22;32155;54.076;12.092;2023-04-16T00:50:46;8.20;99.90
46458;DHT22;32155;54.076;12.092;2023-04-16T00:53:13;8.20;99.90
46458;DHT22;32155;54.076;12.092;2023-04-16T00:55:39;8.20;99.90
46458;DHT22;32155;54.076;12.092;2023-04-16T00:58:05;8.20;99.90
46458;DHT22;32155;54.076;12.092;2023-04-16T01:00:31;8.20;99.90
46458;DHT22;32155;54.076;12.092;2023-04-16T01:02:58;8.20;99.90
46458;DHT22;32155;54.076;12.092;2023-04-16T01:05:24;8.20;99.90
46458;DHT22;32155;54.076;12.092;2023-04-16T01:07:50;8.20;99.90
46458;DHT22;32155;54.076;12.092;2023-04-16T01:10:16;8.20;99.90
46458;DHT22;32155;54.076;12.092;2023-04-16T01:12:42;8.20;99.90
46458;DHT22;32155;54.076;12.092;2023-04-16T01:15:08;8.20;99.90
46458;DHT22;32155;54.076;12.092;2023-04-16T01:17:33;8.10;99.90
46458;DHT22;32155;54.076;12.092;2023-04-16T01:19:59;8.10;99.90
46458;DHT22;32155;54.076;12.092;2023-04-16T01:22:27;8.10;99.90
46458;DHT22;32155;54.076;12.092;2023-04-16T01:24:52;8.10;99.90
46458;DHT22;32155;54.076;12.092;2023-04-16T01:27:18;8.10;99.90
46458;DHT22;32155;54.076;12.092;2023-04-16T01:29:44;8.10;99.90
46458;DHT22;32155;54.076;12.092;2023-04-16T01:32:09;8.10;99.90
46458;DHT22;32155;54.076;12.092;2023-04-16T01:34:35;8.20;99.90
46458;DHT22;32155;54.076;12.092;2023-04-16T01:37:02;8.20;99.90
46458;DHT22;32155;54.076;12.092;2023-04-16T01:39:28;8.10;99.90
46458;DHT22;32155;54.076;12.092;2023-04-16T01:41:57;8.10;99.90
46458;DHT22;32155;54.076;12.092;2023-04-16T01:44:22;8.20;99.90
46458;DHT22;32155;54.076;12.092;2023-04-16T01:46:48;8.20;99.90
46458;DHT22;32155;54.076;12.092;2023-04-16T01:49:14;8.20;99.90
46458;DHT22;32155;54.076;12.092;2023-04-16T01:51:40;8.20;99.90
46458;DHT22;32155;54.076;12.092;2023-04-16T01:54:06;8.10;99.90
46458;DHT22;32155;54.076;12.092;2023-04-16T01:56:32;8.20;99.90
46458;DHT22;32155;54.076;12.092;2023-04-16T01:59:01;8.10;99.90
46458;DHT22;32155;54.076;12.092;2023-04-16T02:01:28;8.10;99.90
46458;DHT22;32155;54.076;12.092;2023-04-16T02:03:56;8.00;99.90
46458;DHT22;32155;54.076;12.092;2023-04-16T02:06:25;8.10;99.90
46458;DHT22;32155;54.076;12.092;2023-04-16T02:08:51;8.10;99.90
46458;DHT22;32155;54.076;12.092;2023-04-16T02:11:17;8.00;99.90
46458;DHT22;32155;54.076;12.092;2023-04-16T02:13:46;8.00;99.90
46458;DHT22;32155;54.076;12.092;2023-04-16T02:16:11;8.00;99.90
46458;DHT22;32155;54.076;12.092;2023-04-16T02:18:37;8.00;99.90
46458;DHT22;32155;54.076;12.092;2023-04-16T02:21:05;8.00;99.90
46458;DHT22;32155;54.076;12.092;2023-04-16T02:23:33;8.00;99.90
46458;DHT22;32155;54.076;12.092;2023-04-16T02:26:04;7.90;99.90
46458;DHT22;32155;54.076;12.092;2023-04-16T02:28:29;7.80;99.90
46458;DHT22;32155;54.076;12.092;2023-04-16T02:30:55;7.90;99.90
46458;DHT22;32155;54.076;12.092;2023-04-16T02:33:23;7.90;99.90
46458;DHT22;32155;54.076;12.092;2023-04-16T02:35:51;7.90;99.90
46458;DHT22;32155;54.076;12.092;2023-04-16T02:38:17;7.90;99.90
46458;DHT22;32155;54.076;12.092;2023-04-16T02:40:43;7.90;99.90
46458;DHT22;32155;54.076;12.092;2023-04-16T02:43:08;7.90;99.90
46458;DHT22;32155;54.076;12.092;2023-04-16T02:45:37;7.90;99.90
46458;DHT22;32155;54.076;12.092;2023-04-16T02:48:02;7.90;99.90
46458;DHT22;32155;54.076;12.092;2023-04-16T02:50:28;7.90;99.90
46458;DHT22;32155;54.076;12.092;2023-04-16T02:52:54;7.90;99.90
46458;DHT22;32155;54.076;12.092;2023-04-16T02:55:19;7.90;99.90
46458;DHT22;32155;54.076;12.092;2023-04-16T02:57:55;7.80;99.90
46458;DHT22;32155;54.076;12.092;2023-04-16T03:00:21;7.80;99.90
46458;DHT22;32155;54.076;12.092;2023-04-16T03:02:47;7.80;99.90
46458;DHT22;32155;54.076;12.092;2023-04-16T03:05:15;7.80;99.90
46458;DHT22;32155;54.076;12.092;2023-04-16T03:07:43;7.80;99.90
46458;DHT22;32155;54.076;12.092;2023-04-16T03:10:09;7.80;99.90
46458;DHT22;32155;54.076;12.092;2023-04-16T03:12:36;7.90;99.90
46458;DHT22;32155;54.076;12.092;2023-04-16T03:15:02;7.90;99.90
46458;DHT22;32155;54.076;12.092;2023-04-16T03:17:27;7.90;99.90
46458;DHT22;32155;54.076;12.092;2023-04-16T03:19:55;8.00;99.90
46458;DHT22;32155;54.076;12.092;2023-04-16T03:22:23;7.90;99.90
46458;DHT22;32155;54.076;12.092;2023-04-16T03:24:49;7.90;99.90
46458;DHT22;32155;54.076;12.092;2023-04-16T03:27:14;7.90;99.90
46458;DHT22;32155;54.076;12.092;2023-04-16T03:29:40;7.90;99.90
46458;DHT22;32155;54.076;12.092;2023-04-16T03:32:06;7.90;99.90
46458;DHT22;32155;54.076;12.092;2023-04-16T03:34:31;7.90;99.90
46458;DHT22;32155;54.076;12.092;2023-04-16T03:36:57;7.90;99.90
46458;DHT22;32155;54.076;12.092;2023-04-16T03:39:23;7.90;99.90
46458;DHT22;32155;54.076;12.092;2023-04-16T03:41:48;7.90;99.90
46458;DHT22;32155;54.076;12.092;2023-04-16T03:44:16;7.90;99.90
46458;DHT22;32155;54.076;12.092;2023-04-16T03:46:42;7.90;99.90
46458;DHT22;32155;54.076;12.092;2023-04-16T03:49:10;7.90;99.90
46458;DHT22;32155;54.076;12.092;2023-04-16T03:51:35;7.90;99.90
46458;DHT22;32155;54.076;12.092;2023-04-16T03:54:01;7.90;99.90
46458;DHT22;32155;54.076;12.092;2023-04-16T03:56:26;8.00;99.90
46458;DHT22;32155;54.076;12.092;2023-04-16T03:58:54;7.90;99.90
46458;DHT22;32155;54.076;12.092;2023-04-16T04:01:20;7.90;99.90
46458;DHT22;32155;54.076;12.092;2023-04-16T04:03:46;7.80;99.90
46458;DHT22;32155;54.076;12.092;2023-04-16T04:06:11;7.80;99.90
46458;DHT22;32155;54.076;12.092;2023-04-16T04:08:38;7.80;99.90
46458;DHT22;32155;54.076;12.092;2023-04-16T04:11:03;7.80;99.90
46458;DHT22;32155;54.076;12.092;2023-04-16T04:13:31;7.80;99.90
46458;DHT22;32155;54.076;12.092;2023-04-16T04:15:57;7.80;99.90
46458;DHT22;32155;54.076;12.092;2023-04-16T04:18:25;7.80;99.90
46458;DHT22;32155;54.076;12.092;2023-04-16T04:20:53;7.80;99.90
46458;DHT22;32155;54.076;12.092;2023-04-16T04:23:18;7.90;99.90
46458;DHT22;32155;54.076;12.092;2023-04-16T04:25:44;7.90;99.90
46458;DHT22;32155;54.076;12.092;2023-04-16T04:28:10;7.90;99.90
46458;DHT22;32155;54.076;12.092;2023-04-16T04:30:35;7.90;99.90
46458;DHT22;32155;54.076;12.092;2023-04-16T04:33:01;7.90;99.90
46458;DHT22;32155;54.076;12.092;2023-04-16T04:35:27;7.90;99.90
46458;DHT22;32155;54.076;12.092;2023-04-16T04:37:52;7.90;99.90
46458;DHT22;32155;54.076;12.092;2023-04-16T04:40:20;7.90;99.90
46458;DHT22;32155;54.076;12.092;2023-04-16T04:42:48;8.00;99.90
46458;DHT22;32155;54.076;12.092;2023-04-16T04:45:14;7.90;99.90
46458;DHT22;32155;54.076;12.092;2023-04-16T04:47:40;7.90;99.90
46458;DHT22;32155;54.076;12.092;2023-04-16T04:50:08;7.90;99.90
46458;DHT22;32155;54.076;12.092;2023-04-16T04:52:33;8.00;99.90
46458;DHT22;32155;54.076;12.092;2023-04-16T04:54:59;8.00;99.90
46458;DHT22;32155;54.076;12.092;2023-04-16T04:57:27;8.00;99.90
46458;DHT22;32155;54.076;12.092;2023-04-16T04:59:52;8.00;99.90
46458;DHT22;32155;54.076;12.092;2023-04-16T05:02:18;8.00;99.90
46458;DHT22;32155;54.076;12.092;2023-04-16T05:04:46;8.10;99.90
46458;DHT22;32155;54.076;12.092;2023-04-16T05:07:11;8.10;99.90
46458;DHT22;32155;54.076;12.092;2023-04-16T05:09:37;8.20;99.90
46458;DHT22;32155;54.076;12.092;2023-04-16T05:12:05;8.10;99.90
46458;DHT22;32155;54.076;12.092;2023-04-16T05:14:31;8.10;99.90
46458;DHT22;32155;54.076;12.092;2023-04-16T05:16:56;8.20;99.90
46458;DHT22;32155;54.076;12.092;2023-04-16T05:19:22;8.20;99.90
46458;DHT22;32155;54.076;12.092;2023-04-16T05:21:47;8.20;99.90
46458;DHT22;32155;54.076;12.092;2023-04-16T05:24:13;8.20;99.90
46458;DHT22;32155;54.076;12.092;2023-04-16T05:26:39;8.20;99.90
46458;DHT22;32155;54.076;12.092;2023-04-16T05:29:04;8.20;99.90
46458;DHT22;32155;54.076;12.092;2023-04-16T05:31:31;8.40;99.90
46458;DHT22;32155;54.076;12.092;2023-04-16T05:33:57;8.60;99.90
46458;DHT22;32155;54.076;12.092;2023-04-16T05:36:22;8.70;99.90
46458;DHT22;32155;54.076;12.092;2023-04-16T05:38:48;8.80;99.90
46458;DHT22;32155;54.076;12.092;2023-04-16T05:41:14;9.00;99.90
46458;DHT22;32155;54.076;12.092;2023-04-16T05:43:39;9.20;99.90
46458;DHT22;32155;54.076;12.092;2023-04-16T05:46:05;9.20;99.90
46458;DHT22;32155;54.076;12.092;2023-04-16T05:48:31;9.20;99.90
46458;DHT22;32155;54.076;12.092;2023-04-16T05:50:56;9.30;99.90
46458;DHT22;32155;54.076;12.092;2023-04-16T05:53:24;9.40;99.90
46458;DHT22;32155;54.076;12.092;2023-04-16T05:55:50;9.30;99.90
46458;DHT22;32155;54.076;12.092;2023-04-16T05:58:16;9.40;99.90
46458;DHT22;32155;54.076;12.092;2023-04-16T06:00:41;9.40;99.90
46458;DHT22;32155;54.076;12.092;2023-04-16T06:03:09;9.30;99.90
46458;DHT22;32155;54.076;12.092;2023-04-16T06:05:35;9.30;99.90
46458;DHT22;32155;54.076;12.092;2023-04-16T06:08:01;9.10;99.90
46458;DHT22;32155;54.076;12.092;2023-04-16T06:10:26;9.10;99.90
46458;DHT22;32155;54.076;12.092;2023-04-16T06:12:52;9.10;99.90
46458;DHT22;32155;54.076;12.092;2023-04-16T06:15:20;9.10;99.90
46458;DHT22;32155;54.076;12.092;2023-04-16T06:17:48;9.10;99.90
46458;DHT22;32155;54.076;12.092;2023-04-16T06:20:17;9.20;99.90
46458;DHT22;32155;54.076;12.092;2023-04-16T06:22:42;9.30;99.90
46458;DHT22;32155;54.076;12.092;2023-04-16T06:25:08;9.30;99.90
46458;DHT22;32155;54.076;12.092;2023-04-16T06:27:34;9.40;99.90
46458;DHT22;32155;54.076;12.092;2023-04-16T06:29:59;9.40;99.90
46458;DHT22;32155;54.076;12.092;2023-04-16T06:32:25;9.50;99.90
46458;DHT22;32155;54.076;12.092;2023-04-16T06:34:51;9.50;99.90
46458;DHT22;32155;54.076;12.092;2023-04-16T06:37:16;9.60;99.90
46458;DHT22;32155;54.076;12.092;2023-04-16T06:39:42;9.60;99.90
46458;DHT22;32155;54.076;12.092;2023-04-16T06:42:11;9.70;99.90
46458;DHT22;32155;54.076;12.092;2023-04-16T06:44:36;9.70;99.90
46458;DHT22;32155;54.076;12.092;2023-04-16T06:47:02;9.70;99.90
46458;DHT22;32155;54.076;12.092;2023-04-16T06:49:40;9.70;99.90
46458;DHT22;32155;54.076;12.092;2023-04-16T06:52:06;9.70;99.90
46458;DHT22;32155;54.076;12.092;2023-04-16T06:54:34;9.70;99.90
46458;DHT22;32155;54.076;12.092;2023-04-16T06:57:02;9.70;99.90
46458;DHT22;32155;54.076;12.092;2023-04-16T06:59:30;9.50;99.90
46458;DHT22;32155;54.076;12.092;2023-04-16T07:01:56;9.60;99.90
46458;DHT22;32155;54.076;12.092;2023-04-16T07:04:22;9.70;99.90
46458;DHT22;32155;54.076;12.092;2023-04-16T07:06:49;9.70;99.90
46458;DHT22;32155;54.076;12.092;2023-04-16T07:09:15;9.70;99.90
46458;DHT22;32155;54.076;12.092;2023-04-16T07:11:43;9.90;99.90
46458;DHT22;32155;54.076;12.092;2023-04-16T07:14:10;10.00;99.90
46458;DHT22;32155;54.076;12.092;2023-04-16T07:16:35;10.10;99.90
46458;DHT22;32155;54.076;12.092;2023-04-16T07:19:02;10.20;99.90
46458;DHT22;32155;54.076;12.092;2023-04-16T07:21:30;10.30;99.90
46458;DHT22;32155;54.076;12.092;2023-04-16T07:23:58;10.40;99.90
46458;DHT22;32155;54.076;12.092;2023-04-16T07:26:24;10.50;99.90
46458;DHT22;32155;54.076;12.092;2023-04-16T07:28:49;10.40;99.90
46458;DHT22;32155;54.076;12.092;2023-04-16T07:31:15;10.30;99.90
46458;DHT22;32155;54.076;12.092;2023-04-16T07:33:43;10.40;99.90
46458;DHT22;32155;54.076;12.092;2023-04-16T07:36:08;10.70;99.90
46458;DHT22;32155;54.076;12.092;2023-04-16T07:38:34;10.70;99.90
46458;DHT22;32155;54.076;12.092;2023-04-16T07:41:02;10.70;99.90
46458;DHT22;32155;54.076;12.092;2023-04-16T07:43:47;10.60;99.90
46458;DHT22;32155;54.076;12.092;2023-04-16T07:46:16;10.60;99.90
46458;DHT22;32155;54.076;12.092;2023-04-16T07:48:42;10.60;99.90
46458;DHT22;32155;54.076;12.092;2023-04-16T07:51:10;10.60;99.90
46458;DHT22;32155;54.076;12.092;2023-04-16T07:53:36;10.70;99.90
46458;DHT22;32155;54.076;12.092;2023-04-16T07:56:04;10.80;99.90
46458;DHT22;32155;54.076;12.092;2023-04-16T07:58:32;10.90;99.90
46458;DHT22;32155;54.076;12.092;2023-04-16T08:01:00;10.90;99.90
46458;DHT22;32155;54.076;12.092;2023-04-16T08:03:26;11.10;99.90
46458;DHT22;32155;54.076;12.092;2023-04-16T08:05:57;11.30;99.90
46458;DHT22;32155;54.076;12.092;2023-04-16T08:08:23;11.30;99.90
46458;DHT22;32155;54.076;12.092;2023-04-16T08:11:10;11.60;99.90
46458;DHT22;32155;54.076;12.092;2023-04-16T08:16:47;12.30;99.90
46458;DHT22;32155;54.076;12.092;2023-04-16T08:19:14;12.50;99.90
46458;DHT22;32155;54.076;12.092;2023-04-16T08:21:40;12.80;99.90
46458;DHT22;32155;54.076;12.092;2023-04-16T08:24:09;13.10;99.90
46458;DHT22;32155;54.076;12.092;2023-04-16T08:26:35;13.30;99.90
46458;DHT22;32155;54.076;12.092;2023-04-16T08:29:01;13.60;99.90
46458;DHT22;32155;54.076;12.092;2023-04-16T08:31:27;13.80;99.90
46458;DHT22;32155;54.076;12.092;2023-04-16T08:33:53;13.90;99.90
46458;DHT22;32155;54.076;12.092;2023-04-16T08:36:21;14.10;99.90
46458;DHT22;32155;54.076;12.092;2023-04-16T08:38:49;14.40;99.90
46458;DHT22;32155;54.076;12.092;2023-04-16T08:41:16;14.20;99.90
46458;DHT22;32155;54.076;12.092;2023-04-16T08:43:46;14.10;99.90
46458;DHT22;32155;54.076;12.092;2023-04-16T08:46:20;14.00;99.90
46458;DHT22;32155;54.076;12.092;2023-04-16T08:48:53;14.30;99.90
46458;DHT22;32155;54.076;12.092;2023-04-16T08:51:21;14.30;99.90
46458;DHT22;32155;54.076;12.092;2023-04-16T08:53:51;14.50;99.90
46458;DHT22;32155;54.076;12.092;2023-04-16T08:56:22;14.60;99.90
46458;DHT22;32155;54.076;12.092;2023-04-16T08:58:49;14.50;99.90
46458;DHT22;32155;54.076;12.092;2023-04-16T09:01:16;14.10;99.90
46458;DHT22;32155;54.076;12.092;2023-04-16T09:03:48;14.10;99.90
46458;DHT22;32155;54.076;12.092;2023-04-16T09:06:14;14.00;99.90
46458;DHT22;32155;54.076;12.092;2023-04-16T09:08:43;13.60;99.90
46458;DHT22;32155;54.076;12.092;2023-04-16T09:11:13;13.60;99.90
46458;DHT22;32155;54.076;12.092;2023-04-16T09:13:41;13.70;99.90
46458;DHT22;32155;54.076;12.092;2023-04-16T09:16:07;13.50;99.90
46458;DHT22;32155;54.076;12.092;2023-04-16T09:18:34;13.40;99.90
46458;DHT22;32155;54.076;12.092;2023-04-16T09:20:59;13.50;99.90
46458;DHT22;32155;54.076;12.092;2023-04-16T09:23:25;13.20;99.90
46458;DHT22;32155;54.076;12.092;2023-04-16T09:25:51;13.10;99.90
46458;DHT22;32155;54.076;12.092;2023-04-16T09:28:45;13.10;99.90
46458;DHT22;32155;54.076;12.092;2023-04-16T09:31:12;13.20;99.90
46458;DHT22;32155;54.076;12.092;2023-04-16T09:33:40;13.30;99.90
46458;DHT22;32155;54.076;12.092;2023-04-16T09:36:08;13.60;99.90
46458;DHT22;32155;54.076;12.092;2023-04-16T09:38:51;13.60;99.90
46458;DHT22;32155;54.076;12.092;2023-04-16T09:41:17;14.50;99.90
46458;DHT22;32155;54.076;12.092;2023-04-16T09:43:56;15.10;99.90
46458;DHT22;32155;54.076;12.092;2023-04-16T09:46:35;16.10;99.90
46458;DHT22;32155;54.076;12.092;2023-04-16T09:49:15;16.60;99.90
46458;DHT22;32155;54.076;12.092;2023-04-16T09:51:41;17.00;99.90
46458;DHT22;32155;54.076;12.092;2023-04-16T09:54:08;16.70;99.90
46458;DHT22;32155;54.076;12.092;2023-04-16T09:56:42;16.90;99.90
46458;DHT22;32155;54.076;12.092;2023-04-16T09:59:20;17.00;99.90
46458;DHT22;32155;54.076;12.092;2023-04-16T10:01:49;16.70;99.90
46458;DHT22;32155;54.076;12.092;2023-04-16T10:04:15;17.00;99.90
46458;DHT22;32155;54.076;12.092;2023-04-16T10:06:43;16.70;99.90
46458;DHT22;32155;54.076;12.092;2023-04-16T10:09:12;17.00;99.90
46458;DHT22;32155;54.076;12.092;2023-04-16T10:11:38;17.10;99.90
46458;DHT22;32155;54.076;12.092;2023-04-16T10:14:06;17.90;99.90
46458;DHT22;32155;54.076;12.092;2023-04-16T10:16:36;18.30;99.90
46458;DHT22;32155;54.076;12.092;2023-04-16T10:19:08;19.10;99.90
46458;DHT22;32155;54.076;12.092;2023-04-16T10:21:36;19.80;99.90
46458;DHT22;32155;54.076;12.092;2023-04-16T10:24:02;20.40;99.90
46458;DHT22;32155;54.076;12.092;2023-04-16T10:26:29;20.00;99.90
46458;DHT22;32155;54.076;12.092;2023-04-16T10:28:57;19.30;99.90
46458;DHT22;32155;54.076;12.092;2023-04-16T10:31:24;17.80;99.90
46458;DHT22;32155;54.076;12.092;2023-04-16T10:33:51;17.50;99.90
46458;DHT22;32155;54.076;12.092;2023-04-16T10:36:26;17.30;99.90
46458;DHT22;32155;54.076;12.092;2023-04-16T10:38:58;17.10;99.90
46458;DHT22;32155;54.076;12.092;2023-04-16T10:41:25;16.90;99.90
46458;DHT22;32155;54.076;12.092;2023-04-16T10:43:51;16.50;99.90
46458;DHT22;32155;54.076;12.092;2023-04-16T10:46:18;16.40;99.90
46458;DHT22;32155;54.076;12.092;2023-04-16T10:48:44;15.90;99.90
46458;DHT22;32155;54.076;12.092;2023-04-16T10:51:26;15.70;99.90
46458;DHT22;32155;54.076;12.092;2023-04-16T10:54:01;15.90;99.90
46458;DHT22;32155;54.076;12.092;2023-04-16T10:56:31;16.10;99.90
46458;DHT22;32155;54.076;12.092;2023-04-16T10:58:59;16.30;99.90
46458;DHT22;32155;54.076;12.092;2023-04-16T11:01:31;16.80;99.90
46458;DHT22;32155;54.076;12.092;2023-04-16T11:04:25;17.10;99.90
46458;DHT22;32155;54.076;12.092;2023-04-16T11:17:31;19.20;99.90
46458;DHT22;32155;54.076;12.092;2023-04-16T11:20:00;19.20;99.90
46458;DHT22;32155;54.076;12.092;2023-04-16T11:22:26;19.80;99.90
46458;DHT22;32155;54.076;12.092;2023-04-16T11:24:55;20.80;99.90
46458;DHT22;32155;54.076;12.092;2023-04-16T11:27:24;25.10;99.90
46458;DHT22;32155;54.076;12.092;2023-04-16T11:30:09;28.00;99.70
46458;DHT22;32155;54.076;12.092;2023-04-16T11:32:36;28.90;90.30
46458;DHT22;32155;54.076;12.092;2023-04-16T11:37:38;27.40;84.20
46458;DHT22;32155;54.076;12.092;2023-04-16T11:40:05;25.30;89.60
46458;DHT22;32155;54.076;12.092;2023-04-16T11:42:36;23.20;92.10
46458;DHT22;32155;54.076;12.092;2023-04-16T11:45:03;21.10;95.80
46458;DHT22;32155;54.076;12.092;2023-04-16T11:47:30;22.50;97.40
46458;DHT22;32155;54.076;12.092;2023-04-16T11:49:56;24.60;93.80
46458;DHT22;32155;54.076;12.092;2023-04-16T11:52:30;24.80;92.50
46458;DHT22;32155;54.076;12.092;2023-04-16T11:54:56;23.40;93.30
46458;DHT22;32155;54.076;12.092;2023-04-16T11:57:30;21.30;96.30
46458;DHT22;32155;54.076;12.092;2023-04-16T11:59:59;21.00;98.10
46458;DHT22;32155;54.076;12.092;2023-04-16T12:05:04;21.70;98.50
46458;DHT22;32155;54.076;12.092;2023-04-16T12:07:29;22.50;96.90
46458;DHT22;32155;54.076;12.092;2023-04-16T12:10:06;22.60;97.40
46458;DHT22;32155;54.076;12.092;2023-04-16T12:12:34;22.70;96.60
46458;DHT22;32155;54.076;12.092;2023-04-16T12:15:01;22.70;95.90
46458;DHT22;32155;54.076;12.092;2023-04-16T12:17:31;22.80;95.80
46458;DHT22;32155;54.076;12.092;2023-04-16T12:20:00;23.60;94.60
46458;DHT22;32155;54.076;12.092;2023-04-16T12:22:30;23.20;93.90
46458;DHT22;32155;54.076;12.092;2023-04-16T12:25:04;22.70;95.30
46458;DHT22;32155;54.076;12.092;2023-04-16T12:27:50;22.30;95.40
46458;DHT22;32155;54.076;12.092;2023-04-16T12:30:21;22.30;96.70
46458;DHT22;32155;54.076;12.092;2023-04-16T12:32:51;22.00;96.70
46458;DHT22;32155;54.076;12.092;2023-04-16T12:35:31;22.20;96.20
46458;DHT22;32155;54.076;12.092;2023-04-16T12:38:00;22.30;96.60
46458;DHT22;32155;54.076;12.092;2023-04-16T12:40:26;22.50;95.30
46458;DHT22;32155;54.076;12.092;2023-04-16T12:42:53;22.80;95.70
46458;DHT22;32155;54.076;12.092;2023-04-16T12:45:19;23.00;94.70
46458;DHT22;32155;54.076;12.092;2023-04-16T12:47:50;21.70;95.90
46458;DHT22;32155;54.076;12.092;2023-04-16T12:50:18;21.50;97.00
46458;DHT22;32155;54.076;12.092;2023-04-16T12:52:43;21.50;97.00
46458;DHT22;32155;54.076;12.092;2023-04-16T12:55:09;22.40;96.70
46458;DHT22;32155;54.076;12.092;2023-04-16T12:57:41;24.10;94.80
46458;DHT22;32155;54.076;12.092;2023-04-16T13:00:09;25.50;92.60
46458;DHT22;32155;54.076;12.092;2023-04-16T13:02:38;26.20;90.20
46458;DHT22;32155;54.076;12.092;2023-04-16T13:05:04;26.80;88.00
46458;DHT22;32155;54.076;12.092;2023-04-16T13:07:31;27.80;84.00
46458;DHT22;32155;54.076;12.092;2023-04-16T13:09:58;26.70;84.20
46458;DHT22;32155;54.076;12.092;2023-04-16T13:12:27;25.70;85.60
46458;DHT22;32155;54.076;12.092;2023-04-16T13:14:55;26.20;84.40
46458;DHT22;32155;54.076;12.092;2023-04-16T13:17:24;26.60;84.80
46458;DHT22;32155;54.076;12.092;2023-04-16T13:19:49;26.00;83.50
46458;DHT22;32155;54.076;12.092;2023-04-16T13:22:18;25.80;85.20
46458;DHT22;32155;54.076;12.092;2023-04-16T13:24:44;24.80;85.50
46458;DHT22;32155;54.076;12.092;2023-04-16T13:27:11;24.10;86.60
46458;DHT22;32155;54.076;12.092;2023-04-16T13:29:42;23.10;90.00
46458;DHT22;32155;54.076;12.092;2023-04-16T13:32:08;24.30;90.20
46458;DHT22;32155;54.076;12.092;2023-04-16T13:34:35;25.50;86.50
46458;DHT22;32155;54.076;12.092;2023-04-16T13:37:01;25.90;84.10
46458;DHT22;32155;54.076;12.092;2023-04-16T13:39:31;26.40;83.40
46458;DHT22;32155;54.076;12.092;2023-04-16T13:41:57;27.40;80.40
46458;DHT22;32155;54.076;12.092;2023-04-16T13:44:23;26.00;80.50
46458;DHT22;32155;54.076;12.092;2023-04-16T13:46:48;26.20;82.80
46458;DHT22;32155;54.076;12.092;2023-04-16T13:49:14;26.60;80.50
46458;DHT22;32155;54.076;12.092;2023-04-16T13:51:48;26.50;79.70
46458;DHT22;32155;54.076;12.092;2023-04-16T13:54:14;26.70;78.70
46458;DHT22;32155;54.076;12.092;2023-04-16T13:56:39;25.10;80.60
46458;DHT22;32155;54.076;12.092;2023-04-16T13:59:06;24.00;84.70
46458;DHT22;32155;54.076;12.092;2023-04-16T14:01:32;25.00;82.90
46458;DHT22;32155;54.076;12.092;2023-04-16T14:04:00;25.40;79.90
46458;DHT22;32155;54.076;12.092;2023-04-16T14:06:30;25.70;81.70
46458;DHT22;32155;54.076;12.092;2023-04-16T14:08:56;26.40;79.90
46458;DHT22;32155;54.076;12.092;2023-04-16T14:11:24;25.60;78.10
46458;DHT22;32155;54.076;12.092;2023-04-16T14:13:50;25.00;79.90
46458;DHT22;32155;54.076;12.092;2023-04-16T14:16:15;25.30;81.50
46458;DHT22;32155;54.076;12.092;2023-04-16T14:18:41;24.40;81.40
46458;DHT22;32155;54.076;12.092;2023-04-16T14:21:07;23.60;84.10
46458;DHT22;32155;54.076;12.092;2023-04-16T14:23:38;23.30;84.70
46458;DHT22;32155;54.076;12.092;2023-04-16T14:26:06;22.40;86.60
46458;DHT22;32155;54.076;12.092;2023-04-16T14:28:32;22.30;89.70
46458;DHT22;32155;54.076;12.092;2023-04-16T14:31:00;22.90;88.00
46458;DHT22;32155;54.076;12.092;2023-04-16T14:33:26;23.60;86.50
46458;DHT22;32155;54.076;12.092;2023-04-16T14:35:54;24.10;85.30
46458;DHT22;32155;54.076;12.092;2023-04-16T14:38:22;24.50;83.80
46458;DHT22;32155;54.076;12.092;2023-04-16T14:40:48;23.70;85.20
46458;DHT22;32155;54.076;12.092;2023-04-16T14:43:14;23.70;85.70
46458;DHT22;32155;54.076;12.092;2023-04-16T14:45:42;23.20;85.70
46458;DHT22;32155;54.076;12.092;2023-04-16T14:48:10;22.70;89.00
46458;DHT22;32155;54.076;12.092;2023-04-16T14:50:38;22.40;89.60
46458;DHT22;32155;54.076;12.092;2023-04-16T14:53:08;20.90;90.90
46458;DHT22;32155;54.076;12.092;2023-04-16T14:55:34;20.00;92.80
46458;DHT22;32155;54.076;12.092;2023-04-16T14:58:00;19.40;93.50
46458;DHT22;32155;54.076;12.092;2023-04-16T15:00:31;18.90;95.10
46458;DHT22;32155;54.076;12.092;2023-04-16T15:03:09;18.30;95.20
46458;DHT22;32155;54.076;12.092;2023-04-16T15:05:35;17.50;98.00
46458;DHT22;32155;54.076;12.092;2023-04-16T15:08:01;17.40;99.10
46458;DHT22;32155;54.076;12.092;2023-04-16T15:10:27;17.30;99.70
46458;DHT22;32155;54.076;12.092;2023-04-16T15:13:00;16.80;99.90
46458;DHT22;32155;54.076;12.092;2023-04-16T15:15:29;16.60;99.90
46458;DHT22;32155;54.076;12.092;2023-04-16T15:18:33;16.50;99.90
46458;DHT22;32155;54.076;12.092;2023-04-16T15:21:01;16.10;99.90
46458;DHT22;32155;54.076;12.092;2023-04-16T15:23:32;16.20;99.90
46458;DHT22;32155;54.076;12.092;2023-04-16T15:25:58;16.10;99.90
46458;DHT22;32155;54.076;12.092;2023-04-16T15:28:30;16.10;99.90
46458;DHT22;32155;54.076;12.092;2023-04-16T15:30:56;15.80;99.90
46458;DHT22;32155;54.076;12.092;2023-04-16T15:33:29;15.50;99.90
46458;DHT22;32155;54.076;12.092;2023-04-16T15:35:55;15.10;99.90
46458;DHT22;32155;54.076;12.092;2023-04-16T15:38:21;14.70;99.90
46458;DHT22;32155;54.076;12.092;2023-04-16T15:40:46;14.30;99.90
46458;DHT22;32155;54.076;12.092;2023-04-16T15:43:13;14.30;99.90
46458;DHT22;32155;54.076;12.092;2023-04-16T15:45:39;14.30;99.90